Terminal Aerodrome Forecast
Issued by NWS Sioux Falls, SD

Home | Current Version | Previous Version | Text Only | Print | Product List | Glossary On
Versions: 1 2 3 4 5 6 7 8 9 10 11 12 13 14 15
259
FTUS43 KFSD 262343
TAFFSD
TAF
KFSD 262343Z 2700/2724 18011KT P6SM FEW250
     FM270200 16007KT P6SM FEW250
     FM271400 VRB04KT P6SM SCT090 BKN110
     FM272000 VRB03KT P6SM SHRA VCTS BKN090CB=

USA.gov is the U.S. government's official web portal to all federal, state and local government web resources and services.